Time;durP1;ratioP1;P1;durP2;ratioP2;P2;SDS_P1;SDS_P2;PMS_P1;PMS_P2;Temp;Humidity;BMP_temperature;BMP_pressure;BME280_temperature;BME280_humidity;BME280_pressure;Samples;Min_cycle;Max_cycle;Signal;HPM_P1;HPM_P2
2023/12/01 00:01:28;;;;;;;;;;;;;;;;;;5037961;28;3253;-61
2023/12/01 00:03:53;;;;;;;;;;;;;;;;;;5037082;28;5891;-60
2023/12/01 00:06:19;;;;;;;;;;;;;;;;;;5037346;28;5271;-60
2023/12/01 00:08:44;;;;;;;;;;;;;;;;;;5026644;28;4913;-60
2023/12/01 00:11:09;;;;;;;;;;;;;;;;;;5047592;28;5022;-61
2023/12/01 00:13:35;;;;;;;;;;;;;;;;;;5047077;28;1081;-60
2023/12/01 00:16:00;;;;;;;;;;;;;;;;;;5041045;28;5059;-60
2023/12/01 00:18:25;;;;;;;;;;;;;;;;;;5037231;28;4501;-60
2023/12/01 00:20:50;;;;;;;;;;;;;;;;;;5041922;28;5059;-59
2023/12/01 00:23:16;;;;;;;;;;;;;;;;;;5046577;28;5056;-60
2023/12/01 00:25:41;;;;;;;;;;;;;;;;;;5040483;28;3256;-61
2023/12/01 00:28:06;;;;;;;;;;;;;;;;;;5038681;28;4939;-61
2023/12/01 00:30:32;;;;;;;;;;;;;;;;;;5032916;28;4889;-62
2023/12/01 00:32:57;;;;;;;;;;;;;;;;;;5043558;28;4418;-61
2023/12/01 00:35:22;;;;;;;;;;;;;;;;;;5042622;28;4605;-61
2023/12/01 00:37:47;;;;;;;;;;;;;;;;;;5043838;28;2014;-61
2023/12/01 00:40:13;;;;;;;;;;;;;;;;;;5040048;28;4482;-60
2023/12/01 00:42:38;;;;;;;;;;;;;;;;;;5038879;28;4923;-61
2023/12/01 00:45:05;;;;;;;;;;;;;;;;;;5027676;28;4899;-60
2023/12/01 00:47:30;;;;;;;;;;;;;;;;;;5043650;28;6158;-60
2023/12/01 00:49:55;;;;;;;;;;;;;;;;;;5045716;28;3432;-60
2023/12/01 00:52:21;;;;;;;;;;;;;;;;;;5042053;28;4888;-61
2023/12/01 00:54:46;;;;;;;;;;;;;;;;;;5043344;28;4869;-61
2023/12/01 00:57:11;;;;;;;;;;;;;;;;;;5041732;28;4692;-61
2023/12/01 00:59:37;;;;;;;;;;;;;;;;;;5049236;28;5229;-60
2023/12/01 01:02:02;;;;;;;;;;;;;;;;;;5038628;28;1341;-61
2023/12/01 01:04:28;;;;;;;;;;;;;;;;;;5030980;28;4629;-60
2023/12/01 01:06:53;;;;;;;;;;;;;;;;;;5040584;28;5287;-60
2023/12/01 01:09:19;;;;;;;;;;;;;;;;;;5041558;28;5091;-60
2023/12/01 01:11:44;;;;;;;;;;;;;;;;;;5024985;28;5043;-60
2023/12/01 01:14:10;;;;;;;;;;;;;;;;;;5041469;28;5179;-60
2023/12/01 01:16:35;;;;;;;;;;;;;;;;;;5041164;28;1192;-60
2023/12/01 01:19:00;;;;;;;;;;;;;;;;;;5038543;28;4746;-60
2023/12/01 01:21:26;;;;;;;;;;;;;;;;;;5037383;28;5023;-60
2023/12/01 01:23:51;;;;;;;;;;;;;;;;;;5024852;28;5116;-60
2023/12/01 01:26:16;;;;;;;;;;;;;;;;;;5040427;28;4546;-60
2023/12/01 01:28:42;;;;;;;;;;;;;;;;;;5037009;28;5064;-60
2023/12/01 01:31:07;;;;;;;;;;;;;;;;;;5039222;28;5090;-60
2023/12/01 01:33:33;;;;;;;;;;;;;;;;;;5025681;28;5324;-60
2023/12/01 01:35:58;;;;;;;;;;;;;;;;;;5040496;28;5006;-60
2023/12/01 01:38:23;;;;;;;;;;;;;;;;;;5038182;28;5044;-60
2023/12/01 01:40:48;;;;;;;;;;;;;;;;;;5044623;28;3799;-59
2023/12/01 01:43:21;;;;;;;;;;;;;;;;;;5041913;28;5069;-60
2023/12/01 01:45:46;;;;;;;;;;;;;;;;;;5022658;28;5061;-61
2023/12/01 01:48:11;;;;;;;;;;;;;;;;;;5025215;28;4973;-60
2023/12/01 01:50:37;;;;;;;;;;;;;;;;;;5044087;28;4581;-60
2023/12/01 01:53:03;;;;;;;;;;;;;;;;;;5043693;28;4981;-58
2023/12/01 01:55:28;;;;;;;;;;;;;;;;;;5041460;28;3355;-61
2023/12/01 01:57:53;;;;;;;;;;;;;;;;;;5043723;28;5068;-61
2023/12/01 02:00:20;;;;;;;;;;;;;;;;;;5041787;28;5058;-61
2023/12/01 02:02:46;;;;;;;;;;;;;;;;;;5028810;28;4478;-60
2023/12/01 02:05:15;;;;;;;;;;;;;;;;;;5039278;28;4842;-60
2023/12/01 02:07:41;;;;;;;;;;;;;;;;;;5017463;28;3272;-60
2023/12/01 02:10:07;;;;;;;;;;;;;;;;;;5041150;28;4442;-59
2023/12/01 02:12:32;;;;;;;;;;;;;;;;;;5038529;28;4927;-61
2023/12/01 02:14:57;;;;;;;;;;;;;;;;;;5041859;28;5003;-60
2023/12/01 02:17:23;;;;;;;;;;;;;;;;;;5043626;28;5097;-60
2023/12/01 02:19:51;;;;;;;;;;;;;;;;;;5046214;28;1307;-60
2023/12/01 02:22:16;;;;;;;;;;;;;;;;;;5036687;28;4531;-60
2023/12/01 02:24:41;;;;;;;;;;;;;;;;;;5045647;28;5080;-60
2023/12/01 02:27:07;;;;;;;;;;;;;;;;;;5039261;28;5122;-61
2023/12/01 02:29:32;;;;;;;;;;;;;;;;;;5042935;28;5092;-61
2023/12/01 02:31:58;;;;;;;;;;;;;;;;;;5046382;28;3437;-61
2023/12/01 02:34:23;;;;;;;;;;;;;;;;;;5044502;28;4476;-60
2023/12/01 02:36:48;;;;;;;;;;;;;;;;;;5038980;28;4442;-61
2023/12/01 02:39:14;;;;;;;;;;;;;;;;;;5049973;28;4897;-61
2023/12/01 02:41:39;;;;;;;;;;;;;;;;;;5041947;28;5117;-61
2023/12/01 02:44:04;;;;;;;;;;;;;;;;;;5048428;28;4862;-60
2023/12/01 02:46:30;;;;;;;;;;;;;;;;;;5052564;28;3648;-60
2023/12/01 02:48:55;;;;;;;;;;;;;;;;;;5043895;28;4887;-60
2023/12/01 02:51:21;;;;;;;;;;;;;;;;;;5041374;28;5162;-61
2023/12/01 02:53:46;;;;;;;;;;;;;;;;;;5046765;28;5081;-61
2023/12/01 02:56:11;;;;;;;;;;;;;;;;;;5037940;28;4959;-61
2023/12/01 02:58:36;;;;;;;;;;;;;;;;;;5046009;28;1345;-61
2023/12/01 03:01:03;;;;;;;;;;;;;;;;;;5043079;28;4910;-61
2023/12/01 03:03:28;;;;;;;;;;;;;;;;;;5046620;28;5125;-61
2023/12/01 03:05:53;;;;;;;;;;;;;;;;;;5044337;28;5125;-61
2023/12/01 03:08:19;;;;;;;;;;;;;;;;;;5042432;28;5041;-61
2023/12/01 03:10:44;;;;;;;;;;;;;;;;;;5049873;28;1918;-60
2023/12/01 03:13:09;;;;;;;;;;;;;;;;;;5047043;28;4642;-60
2023/12/01 03:15:34;;;;;;;;;;;;;;;;;;5046109;28;5016;-60
2023/12/01 03:18:00;;;;;;;;;;;;;;;;;;5043454;28;4494;-60
2023/12/01 03:20:27;;;;;;;;;;;;;;;;;;5044923;28;5036;-60
2023/12/01 03:22:53;;;;;;;;;;;;;;;;;;5042346;28;3408;-60
2023/12/01 03:25:18;;;;;;;;;;;;;;;;;;5047736;28;4971;-61
2023/12/01 03:27:44;;;;;;;;;;;;;;;;;;5047932;28;5077;-61
2023/12/01 03:30:13;;;;;;;;;;;;;;;;;;5039717;28;5318;-61
2023/12/01 03:32:48;;;;;;;;;;;;;;;;;;5050724;28;5081;-60
2023/12/01 03:35:17;;;;;;;;;;;;;;;;;;5047856;28;5168;-60
2023/12/01 03:37:43;;;;;;;;;;;;;;;;;;5041249;28;3313;-61
2023/12/01 03:40:12;;;;;;;;;;;;;;;;;;5046243;28;5088;-61
2023/12/01 03:42:38;;;;;;;;;;;;;;;;;;5047228;28;5144;-61
2023/12/01 03:45:06;;;;;;;;;;;;;;;;;;5039853;28;4490;-61
2023/12/01 03:47:32;;;;;;;;;;;;;;;;;;5043343;28;5069;-61
2023/12/01 03:49:57;;;;;;;;;;;;;;;;;;5048139;28;1405;-60
2023/12/01 03:52:22;;;;;;;;;;;;;;;;;;5044516;28;4987;-60
2023/12/01 03:54:48;;;;;;;;;;;;;;;;;;5047523;28;4877;-61
2023/12/01 03:57:13;;;;;;;;;;;;;;;;;;5049118;28;5181;-61
2023/12/01 03:59:39;;;;;;;;;;;;;;;;;;5043522;28;5027;-60
2023/12/01 04:02:04;;;;;;;;;;;;;;;;;;5048068;28;4708;-59
2023/12/01 04:04:29;;;;;;;;;;;;;;;;;;5040229;28;3849;-60
2023/12/01 04:06:55;;;;;;;;;;;;;;;;;;5041163;28;4945;-60
2023/12/01 04:09:20;;;;;;;;;;;;;;;;;;5049632;28;4954;-60
2023/12/01 04:11:45;;;;;;;;;;;;;;;;;;5046460;28;5019;-60
2023/12/01 04:14:11;;;;;;;;;;;;;;;;;;5036495;28;4878;-60
2023/12/01 04:16:36;;;;;;;;;;;;;;;;;;5049383;28;1080;-60
2023/12/01 04:19:02;;;;;;;;;;;;;;;;;;5044044;28;4967;-60
2023/12/01 04:21:27;;;;;;;;;;;;;;;;;;5042619;28;5909;-60
2023/12/01 04:23:53;;;;;;;;;;;;;;;;;;5047639;28;5088;-61
2023/12/01 04:26:18;;;;;;;;;;;;;;;;;;5039832;28;4672;-60
2023/12/01 04:28:43;;;;;;;;;;;;;;;;;;5045314;28;4925;-60
2023/12/01 04:31:09;;;;;;;;;;;;;;;;;;5047321;28;5181;-60
2023/12/01 04:33:34;;;;;;;;;;;;;;;;;;5046372;28;4456;-60
2023/12/01 04:35:59;;;;;;;;;;;;;;;;;;5041206;28;5404;-60
2023/12/01 04:38:25;;;;;;;;;;;;;;;;;;5037005;28;4614;-60
2023/12/01 04:40:50;;;;;;;;;;;;;;;;;;5043358;28;3232;-60
2023/12/01 04:43:17;;;;;;;;;;;;;;;;;;5040581;28;4924;-60
2023/12/01 04:45:43;;;;;;;;;;;;;;;;;;5045862;28;5016;-60
2023/12/01 04:48:08;;;;;;;;;;;;;;;;;;5044297;28;5150;-60
2023/12/01 04:50:33;;;;;;;;;;;;;;;;;;5040106;28;5751;-60
2023/12/01 04:53:00;;;;;;;;;;;;;;;;;;5042863;28;3263;-60
2023/12/01 04:55:26;;;;;;;;;;;;;;;;;;5045011;28;4608;-60
2023/12/01 04:57:51;;;;;;;;;;;;;;;;;;5042484;28;5248;-61
2023/12/01 05:00:25;;;;;;;;;;;;;;;;;;5042770;28;4482;-60
2023/12/01 05:02:53;;;;;;;;;;;;;;;;;;5048777;28;5011;-60
2023/12/01 05:05:19;;;;;;;;;;;;;;;;;;5044106;28;4885;-60
2023/12/01 05:07:44;;;;;;;;;;;;;;;;;;5045695;28;3315;-60
2023/12/01 05:10:14;;;;;;;;;;;;;;;;;;5042233;28;4975;-61
2023/12/01 05:12:49;;;;;;;;;;;;;;;;;;5045446;28;4833;-60
2023/12/01 05:15:17;;;;;;;;;;;;;;;;;;5046727;28;4889;-61
2023/12/01 05:17:43;;;;;;;;;;;;;;;;;;5045029;28;5068;-61
2023/12/01 05:20:15;;;;;;;;;;;;;;;;;;5043607;28;5866;-61
2023/12/01 05:22:40;;;;;;;;;;;;;;;;;;5040687;28;1140;-60
2023/12/01 05:25:06;;;;;;;;;;;;;;;;;;5042570;28;5012;-59
2023/12/01 05:27:31;;;;;;;;;;;;;;;;;;5045420;28;4399;-60
2023/12/01 05:29:56;;;;;;;;;;;;;;;;;;5036537;28;4950;-61
2023/12/01 05:32:22;;;;;;;;;;;;;;;;;;5048948;28;5061;-61
2023/12/01 05:34:47;;;;;;;;;;;;;;;;;;5043870;28;3293;-61
2023/12/01 05:37:12;;;;;;;;;;;;;;;;;;5040820;28;5174;-60
2023/12/01 05:39:38;;;;;;;;;;;;;;;;;;5045367;28;4976;-60
2023/12/01 05:42:04;;;;;;;;;;;;;;;;;;5044400;28;4830;-60
2023/12/01 05:44:31;;;;;;;;;;;;;;;;;;5046413;28;5071;-60
2023/12/01 05:46:57;;;;;;;;;;;;;;;;;;5048093;28;1302;-60
2023/12/01 05:49:22;;;;;;;;;;;;;;;;;;5038881;28;4625;-60
2023/12/01 05:51:48;;;;;;;;;;;;;;;;;;5043314;28;5384;-60
2023/12/01 05:54:13;;;;;;;;;;;;;;;;;;5036758;28;5027;-61
2023/12/01 05:56:38;;;;;;;;;;;;;;;;;;5041670;28;4836;-62
2023/12/01 05:59:04;;;;;;;;;;;;;;;;;;5044763;28;5081;-60
2023/12/01 06:01:30;;;;;;;;;;;;;;;;;;5051398;28;3249;-61
2023/12/01 06:03:55;;;;;;;;;;;;;;;;;;5042092;28;5081;-60
2023/12/01 06:06:20;;;;;;;;;;;;;;;;;;5037260;28;4915;-61
2023/12/01 06:08:46;;;;;;;;;;;;;;;;;;5041211;28;5077;-61
2023/12/01 06:11:11;;;;;;;;;;;;;;;;;;5034104;28;5032;-60
2023/12/01 06:13:36;;;;;;;;;;;;;;;;;;5043262;28;3305;-60
2023/12/01 06:16:02;;;;;;;;;;;;;;;;;;5043111;28;5073;-60
2023/12/01 06:18:29;;;;;;;;;;;;;;;;;;5042514;28;4973;-60
2023/12/01 06:20:55;;;;;;;;;;;;;;;;;;5041473;28;4552;-60
2023/12/01 06:23:20;;;;;;;;;;;;;;;;;;5042174;28;5143;-61
2023/12/01 06:25:46;;;;;;;;;;;;;;;;;;5035220;28;1103;-61
2023/12/01 06:28:12;;;;;;;;;;;;;;;;;;5043118;28;4970;-60
2023/12/01 06:30:37;;;;;;;;;;;;;;;;;;5044751;28;4986;-61
2023/12/01 06:33:03;;;;;;;;;;;;;;;;;;5043641;28;5030;-60
2023/12/01 06:35:28;;;;;;;;;;;;;;;;;;5039863;28;4513;-60
2023/12/01 06:37:53;;;;;;;;;;;;;;;;;;5040865;28;1686;-61
2023/12/01 06:40:20;;;;;;;;;;;;;;;;;;5041970;28;5044;-60
2023/12/01 06:42:49;;;;;;;;;;;;;;;;;;5048338;28;5040;-58
2023/12/01 06:45:15;;;;;;;;;;;;;;;;;;5041224;28;5037;-59
2023/12/01 06:47:40;;;;;;;;;;;;;;;;;;5036969;28;5188;-59
2023/12/01 06:50:06;;;;;;;;;;;;;;;;;;5038490;28;5104;-59
2023/12/01 06:52:32;;;;;;;;;;;;;;;;;;5044138;28;1961;-59
2023/12/01 06:54:57;;;;;;;;;;;;;;;;;;5024866;28;4864;-60
2023/12/01 06:57:23;;;;;;;;;;;;;;;;;;5044300;28;4959;-59
2023/12/01 06:59:48;;;;;;;;;;;;;;;;;;5044852;28;4960;-59
2023/12/01 07:02:17;;;;;;;;;;;;;;;;;;5039090;28;5152;-60
2023/12/01 07:04:43;;;;;;;;;;;;;;;;;;5037237;28;3278;-56
2023/12/01 07:07:08;;;;;;;;;;;;;;;;;;5033052;28;5163;-61
2023/12/01 07:09:34;;;;;;;;;;;;;;;;;;5035631;28;4618;-60
2023/12/01 07:12:03;;;;;;;;;;;;;;;;;;5032674;28;5281;-59
2023/12/01 07:14:29;;;;;;;;;;;;;;;;;;5038526;28;4719;-61
2023/12/01 07:16:54;;;;;;;;;;;;;;;;;;5044957;28;3232;-60
2023/12/01 07:19:19;;;;;;;;;;;;;;;;;;5042843;28;5135;-58
2023/12/01 07:21:45;;;;;;;;;;;;;;;;;;5029806;28;4785;-60
2023/12/01 07:24:10;;;;;;;;;;;;;;;;;;5042779;28;5096;-71
2023/12/01 07:26:35;;;;;;;;;;;;;;;;;;5041124;28;5100;-58
2023/12/01 07:29:04;;;;;;;;;;;;;;;;;;5037979;28;4951;-62
2023/12/01 07:31:29;;;;;;;;;;;;;;;;;;5051475;28;5123;-62
2023/12/01 07:33:54;;;;;;;;;;;;;;;;;;5043404;28;5276;-62
2023/12/01 07:36:20;;;;;;;;;;;;;;;;;;5036018;28;4942;-65
2023/12/01 07:38:46;;;;;;;;;;;;;;;;;;5038253;28;5113;-62
2023/12/01 07:41:12;;;;;;;;;;;;;;;;;;5041588;28;4524;-69
2023/12/01 07:43:40;;;;;;;;;;;;;;;;;;5043174;28;3235;-67
2023/12/01 07:46:06;;;;;;;;;;;;;;;;;;5037691;28;5495;-75
2023/12/01 07:48:32;;;;;;;;;;;;;;;;;;5039009;28;5024;-64
2023/12/01 07:50:57;;;;;;;;;;;;;;;;;;5041387;28;4761;-62
2023/12/01 07:53:23;;;;;;;;;;;;;;;;;;5044792;28;5013;-63
2023/12/01 07:55:48;;;;;;;;;;;;;;;;;;5034521;28;3244;-65
2023/12/01 07:58:13;;;;;;;;;;;;;;;;;;5042457;28;4907;-64
2023/12/01 08:00:40;;;;;;;;;;;;;;;;;;5040588;28;4876;-66
2023/12/01 08:03:06;;;;;;;;;;;;;;;;;;5039912;28;5165;-66
2023/12/01 08:05:31;;;;;;;;;;;;;;;;;;5040513;28;4924;-65
2023/12/01 08:07:56;;;;;;;;;;;;;;;;;;5046698;28;3389;-65
2023/12/01 08:10:22;;;;;;;;;;;;;;;;;;5048052;28;4433;-65
2023/12/01 08:12:48;;;;;;;;;;;;;;;;;;5042962;28;4863;-66
2023/12/01 08:15:13;;;;;;;;;;;;;;;;;;5043673;28;5090;-67
2023/12/01 08:17:39;;;;;;;;;;;;;;;;;;5045697;28;5084;-68
2023/12/01 08:20:06;;;;;;;;;;;;;;;;;;5048757;28;4754;-70
2023/12/01 08:22:37;;;;;;;;;;;;;;;;;;5045271;28;2119;-70
2023/12/01 08:25:03;;;;;;;;;;;;;;;;;;5034968;28;4583;-68
2023/12/01 08:27:28;;;;;;;;;;;;;;;;;;5043120;28;5251;-70
2023/12/01 08:29:54;;;;;;;;;;;;;;;;;;5043298;28;5180;-67
2023/12/01 08:32:19;;;;;;;;;;;;;;;;;;5044214;28;5601;-66
2023/12/01 08:34:44;;;;;;;;;;;;;;;;;;5048347;28;3244;-66
2023/12/01 08:37:10;;;;;;;;;;;;;;;;;;5042831;28;5126;-65
2023/12/01 08:39:35;;;;;;;;;;;;;;;;;;5044786;28;5048;-66
2023/12/01 08:42:02;;;;;;;;;;;;;;;;;;5043935;28;5047;-65
2023/12/01 08:44:28;;;;;;;;;;;;;;;;;;5050462;28;5080;-66
2023/12/01 08:46:53;;;;;;;;;;;;;;;;;;5041102;28;1130;-66
2023/12/01 08:49:19;;;;;;;;;;;;;;;;;;5047769;28;4918;-68
2023/12/01 08:51:44;;;;;;;;;;;;;;;;;;5040848;28;5129;-67
2023/12/01 08:54:09;;;;;;;;;;;;;;;;;;5045395;28;4685;-66
2023/12/01 08:56:35;;;;;;;;;;;;;;;;;;5041059;28;4944;-66
2023/12/01 08:59:00;;;;;;;;;;;;;;;;;;5045677;28;1255;-67
2023/12/01 09:01:26;;;;;;;;;;;;;;;;;;5042041;28;5060;-66
2023/12/01 09:03:52;;;;;;;;;;;;;;;;;;5046564;28;5100;-66
2023/12/01 09:06:17;;;;;;;;;;;;;;;;;;5046196;28;5195;-65
2023/12/01 09:08:42;;;;;;;;;;;;;;;;;;5036515;28;4990;-68
2023/12/01 09:11:08;;;;;;;;;;;;;;;;;;5042369;28;5117;-67
2023/12/01 09:13:34;;;;;;;;;;;;;;;;;;5042587;28;3449;-66
2023/12/01 09:16:00;;;;;;;;;;;;;;;;;;5049158;28;5050;-66
2023/12/01 09:18:25;;;;;;;;;;;;;;;;;;5042042;28;5092;-66
2023/12/01 09:20:52;;;;;;;;;;;;;;;;;;5044514;28;5189;-68
2023/12/01 09:23:17;;;;;;;;;;;;;;;;;;5046339;28;4784;-68
2023/12/01 09:25:42;;;;;;;;;;;;;;;;;;5044836;28;1236;-67
2023/12/01 09:28:08;;;;;;;;;;;;;;;;;;5036527;28;5055;-67
2023/12/01 09:30:33;;;;;;;;;;;;;;;;;;5039328;28;4869;-66
2023/12/01 09:33:00;;;;;;;;;;;;;;;;;;5046590;28;5112;-68
2023/12/01 09:35:26;;;;;;;;;;;;;;;;;;5040807;28;4619;-66
2023/12/01 09:37:51;;;;;;;;;;;;;;;;;;5036640;28;1664;-66
2023/12/01 09:40:17;;;;;;;;;;;;;;;;;;5046436;28;5019;-65
2023/12/01 09:42:42;;;;;;;;;;;;;;;;;;5028276;28;4924;-66
2023/12/01 09:45:09;;;;;;;;;;;;;;;;;;5029739;28;5136;-66
2023/12/01 09:47:34;;;;;;;;;;;;;;;;;;5044976;28;5156;-68
2023/12/01 09:50:00;;;;;;;;;;;;;;;;;;5044252;28;3317;-67
2023/12/01 09:52:26;;;;;;;;;;;;;;;;;;5044570;28;5224;-68
2023/12/01 09:54:51;;;;;;;;;;;;;;;;;;5045050;28;4953;-65
2023/12/01 09:57:16;;;;;;;;;;;;;;;;;;5040669;28;4538;-66
2023/12/01 09:59:43;;;;;;;;;;;;;;;;;;5049202;28;4863;-64
2023/12/01 10:02:09;;;;;;;;;;;;;;;;;;5013553;28;4879;-68
2023/12/01 10:04:35;;;;;;;;;;;;;;;;;;5044056;28;3383;-68
2023/12/01 10:07:00;;;;;;;;;;;;;;;;;;5043421;28;5012;-67
2023/12/01 10:09:35;;;;;;;;;;;;;;;;;;5024459;28;5035;-66
2023/12/01 10:12:09;;;;;;;;;;;;;;;;;;5040424;28;4890;-65
2023/12/01 10:14:35;;;;;;;;;;;;;;;;;;5042072;28;5169;-68
2023/12/01 10:17:03;;;;;;;;;;;;;;;;;;5042755;28;3714;-67
2023/12/01 10:19:30;;;;;;;;;;;;;;;;;;5042141;28;5423;-67
2023/12/01 10:21:56;;;;;;;;;;;;;;;;;;5039935;28;5097;-71
2023/12/01 10:24:21;;;;;;;;;;;;;;;;;;5027222;28;5094;-66
2023/12/01 10:26:47;;;;;;;;;;;;;;;;;;5038928;28;5003;-66
2023/12/01 10:29:44;;;;;;;;;;;;;;;;;;5040752;28;5229;-66
2023/12/01 10:32:11;;;;;;;;;;;;;;;;;;5034420;28;4892;-66
2023/12/01 10:34:37;;;;;;;;;;;;;;;;;;5046434;28;1234;-67
2023/12/01 10:37:03;;;;;;;;;;;;;;;;;;5041242;28;4871;-66
2023/12/01 10:39:29;;;;;;;;;;;;;;;;;;5026223;28;5863;-66
2023/12/01 10:41:55;;;;;;;;;;;;;;;;;;5038719;28;4964;-68
2023/12/01 10:44:26;;;;;;;;;;;;;;;;;;5044887;28;5118;-70
2023/12/01 10:46:52;;;;;;;;;;;;;;;;;;5042766;28;1148;-66
2023/12/01 10:49:18;;;;;;;;;;;;;;;;;;5039300;28;4459;-66
2023/12/01 10:51:43;;;;;;;;;;;;;;;;;;5039603;28;5027;-67
2023/12/01 10:54:09;;;;;;;;;;;;;;;;;;5033477;28;4447;-67
2023/12/01 10:56:35;;;;;;;;;;;;;;;;;;5038503;28;4895;-66
2023/12/01 10:59:01;;;;;;;;;;;;;;;;;;5047273;28;1082;-69
2023/12/01 11:01:27;;;;;;;;;;;;;;;;;;5025600;28;5023;-67
2023/12/01 11:03:52;;;;;;;;;;;;;;;;;;5034582;28;4400;-67
2023/12/01 11:06:44;;;;;;;;;;;;;;;;;;5014634;28;5014;-69
2023/12/01 11:09:18;;;;;;;;;;;;;;;;;;5005897;28;5217;-67
2023/12/01 11:11:44;;;;;;;;;;;;;;;;;;5042363;28;5194;-66
2023/12/01 11:14:17;;;;;;;;;;;;;;;;;;5044572;28;4977;-66
2023/12/01 11:16:42;;;;;;;;;;;;;;;;;;5035909;28;2108;-68
2023/12/01 11:19:08;;;;;;;;;;;;;;;;;;5040461;28;4952;-68
2023/12/01 11:21:33;;;;;;;;;;;;;;;;;;5042860;28;4453;-65
2023/12/01 11:24:22;;;;;;;;;;;;;;;;;;5038861;28;5037;-67
2023/12/01 11:26:48;;;;;;;;;;;;;;;;;;5039067;28;5054;-67
2023/12/01 11:29:28;;;;;;;;;;;;;;;;;;5033238;28;5141;-67
2023/12/01 11:31:55;;;;;;;;;;;;;;;;;;5038745;28;1902;-66
2023/12/01 11:34:20;;;;;;;;;;;;;;;;;;5039453;28;5042;-67
2023/12/01 11:36:56;;;;;;;;;;;;;;;;;;5027034;28;5034;-68
2023/12/01 11:39:26;;;;;;;;;;;;;;;;;;5048251;28;5367;-67
2023/12/01 11:41:55;;;;;;;;;;;;;;;;;;5039611;28;5042;-66
2023/12/01 11:44:27;;;;;;;;;;;;;;;;;;5039556;28;5302;-67
2023/12/01 11:46:56;;;;;;;;;;;;;;;;;;5050855;28;1152;-67
2023/12/01 11:49:40;;;;;;;;;;;;;;;;;;5027667;28;5015;-68
2023/12/01 11:52:07;;;;;;;;;;;;;;;;;;5048328;28;4611;-66
2023/12/01 11:54:36;;;;;;;;;;;;;;;;;;5025580;28;5922;-65
2023/12/01 11:57:02;;;;;;;;;;;;;;;;;;5044700;28;4995;-66
2023/12/01 11:59:29;;;;;;;;;;;;;;;;;;5028281;28;5133;-66
2023/12/01 12:01:56;;;;;;;;;;;;;;;;;;5047544;28;1170;-66
2023/12/01 12:04:21;;;;;;;;;;;;;;;;;;5028068;28;5141;-67
2023/12/01 12:06:46;;;;;;;;;;;;;;;;;;5046442;28;4481;-68
2023/12/01 12:09:18;;;;;;;;;;;;;;;;;;5041027;28;5369;-67
2023/12/01 12:11:43;;;;;;;;;;;;;;;;;;5045812;28;5182;-67
2023/12/01 12:14:09;;;;;;;;;;;;;;;;;;5045107;28;5058;-65
2023/12/01 12:16:34;;;;;;;;;;;;;;;;;;5045391;28;1116;-66
2023/12/01 12:18:59;;;;;;;;;;;;;;;;;;5041279;28;4983;-67
2023/12/01 12:21:25;;;;;;;;;;;;;;;;;;5045124;28;5007;-67
2023/12/01 12:23:51;;;;;;;;;;;;;;;;;;5027624;28;5068;-67
2023/12/01 12:26:18;;;;;;;;;;;;;;;;;;5018772;28;5331;-67
2023/12/01 12:28:48;;;;;;;;;;;;;;;;;;5024356;28;4982;-68
2023/12/01 12:31:14;;;;;;;;;;;;;;;;;;5023010;28;5059;-68
2023/12/01 12:33:39;;;;;;;;;;;;;;;;;;5044062;28;5210;-66
2023/12/01 12:36:05;;;;;;;;;;;;;;;;;;5039219;28;4820;-67
2023/12/01 12:38:31;;;;;;;;;;;;;;;;;;5024024;28;5427;-66
2023/12/01 12:40:56;;;;;;;;;;;;;;;;;;5043677;28;3303;-65
2023/12/01 12:43:22;;;;;;;;;;;;;;;;;;5040557;28;4435;-68
2023/12/01 12:45:51;;;;;;;;;;;;;;;;;;5042802;28;5065;-66
2023/12/01 12:48:16;;;;;;;;;;;;;;;;;;5034621;28;4550;-65
2023/12/01 12:50:41;;;;;;;;;;;;;;;;;;5039536;28;4925;-70
2023/12/01 12:53:07;;;;;;;;;;;;;;;;;;5038252;28;5213;-65
2023/12/01 12:55:32;;;;;;;;;;;;;;;;;;5026897;28;3252;-65
2023/12/01 12:57:58;;;;;;;;;;;;;;;;;;5037059;28;5148;-65
2023/12/01 13:00:23;;;;;;;;;;;;;;;;;;5043381;28;5224;-66
2023/12/01 13:02:48;;;;;;;;;;;;;;;;;;5042642;28;5074;-68
2023/12/01 13:05:14;;;;;;;;;;;;;;;;;;5040519;28;5037;-67
2023/12/01 13:07:39;;;;;;;;;;;;;;;;;;5039452;28;3293;-72
2023/12/01 13:10:05;;;;;;;;;;;;;;;;;;5039476;28;5144;-59
2023/12/01 13:12:30;;;;;;;;;;;;;;;;;;5035786;28;4938;-61
2023/12/01 13:14:56;;;;;;;;;;;;;;;;;;5041338;28;5150;-60
2023/12/01 13:17:22;;;;;;;;;;;;;;;;;;5034888;28;5118;-61
2023/12/01 13:19:48;;;;;;;;;;;;;;;;;;5048721;28;3321;-61
2023/12/01 13:22:14;;;;;;;;;;;;;;;;;;5038250;28;5183;-62
2023/12/01 13:24:39;;;;;;;;;;;;;;;;;;5038120;28;5863;-61
2023/12/01 13:27:04;;;;;;;;;;;;;;;;;;5044593;28;4994;-61
2023/12/01 13:29:30;;;;;;;;;;;;;;;;;;5040922;28;4871;-59
2023/12/01 13:31:55;;;;;;;;;;;;;;;;;;5039158;28;3468;-61
2023/12/01 13:34:20;;;;;;;;;;;;;;;;;;5024754;28;4496;-63
2023/12/01 13:36:48;;;;;;;;;;;;;;;;;;5042251;28;5030;-60
2023/12/01 13:39:16;;;;;;;;;;;;;;;;;;5044343;28;5159;-60
2023/12/01 13:41:41;;;;;;;;;;;;;;;;;;5038128;28;4914;-61
2023/12/01 13:44:07;;;;;;;;;;;;;;;;;;5044616;28;4657;-59
2023/12/01 13:46:32;;;;;;;;;;;;;;;;;;5046178;28;3301;-59
2023/12/01 13:48:57;;;;;;;;;;;;;;;;;;5033421;28;5082;-63
2023/12/01 13:51:23;;;;;;;;;;;;;;;;;;5035847;28;4975;-58
2023/12/01 13:53:49;;;;;;;;;;;;;;;;;;5041406;28;5028;-62
2023/12/01 13:56:14;;;;;;;;;;;;;;;;;;5042369;28;5024;-60
2023/12/01 13:58:42;;;;;;;;;;;;;;;;;;5045132;28;3237;-62
2023/12/01 14:01:08;;;;;;;;;;;;;;;;;;5043301;28;4931;-60
2023/12/01 14:03:33;;;;;;;;;;;;;;;;;;5027956;28;4980;-60
2023/12/01 14:05:58;;;;;;;;;;;;;;;;;;5035144;28;5616;-60
2023/12/01 14:08:24;;;;;;;;;;;;;;;;;;5040633;28;4950;-62
2023/12/01 14:10:50;;;;;;;;;;;;;;;;;;5022948;28;1914;-62
2023/12/01 14:13:15;;;;;;;;;;;;;;;;;;5042690;28;5045;-66
2023/12/01 14:15:41;;;;;;;;;;;;;;;;;;5042659;28;5129;-60
2023/12/01 14:18:06;;;;;;;;;;;;;;;;;;5044273;28;4891;-60
2023/12/01 14:20:32;;;;;;;;;;;;;;;;;;5039862;28;5136;-58
2023/12/01 14:22:57;;;;;;;;;;;;;;;;;;5014500;28;3344;-60
2023/12/01 14:25:23;;;;;;;;;;;;;;;;;;5035759;28;5000;-61
2023/12/01 14:27:48;;;;;;;;;;;;;;;;;;5034981;28;4670;-59
2023/12/01 14:30:13;;;;;;;;;;;;;;;;;;5033947;28;5397;-61
2023/12/01 14:32:39;;;;;;;;;;;;;;;;;;5037566;28;5316;-64
2023/12/01 14:35:04;;;;;;;;;;;;;;;;;;5039056;28;5167;-62
2023/12/01 14:37:29;;;;;;;;;;;;;;;;;;5037985;28;3142;-58
2023/12/01 14:39:55;;;;;;;;;;;;;;;;;;5040833;28;4966;-58
2023/12/01 14:42:21;;;;;;;;;;;;;;;;;;5035811;28;5042;-61
2023/12/01 14:44:46;;;;;;;;;;;;;;;;;;5038094;28;4720;-62
2023/12/01 14:47:11;;;;;;;;;;;;;;;;;;5033246;28;5080;-61
2023/12/01 14:49:37;;;;;;;;;;;;;;;;;;5032699;28;3274;-62
2023/12/01 14:52:02;;;;;;;;;;;;;;;;;;5032825;28;4487;-63
2023/12/01 14:54:28;;;;;;;;;;;;;;;;;;5037936;28;5028;-60
2023/12/01 14:56:53;;;;;;;;;;;;;;;;;;5044278;28;4932;-61
2023/12/01 14:59:19;;;;;;;;;;;;;;;;;;5042234;28;5057;-60
2023/12/01 15:01:49;;;;;;;;;;;;;;;;;;5046855;28;1094;-58
2023/12/01 15:04:14;;;;;;;;;;;;;;;;;;5037574;28;5065;-59
2023/12/01 15:06:39;;;;;;;;;;;;;;;;;;5031123;28;4989;-61
2023/12/01 15:09:04;;;;;;;;;;;;;;;;;;5033245;28;4523;-61
2023/12/01 15:11:30;;;;;;;;;;;;;;;;;;5040936;28;4920;-58
2023/12/01 15:13:55;;;;;;;;;;;;;;;;;;5049188;28;3210;-58
2023/12/01 15:16:21;;;;;;;;;;;;;;;;;;5049187;28;5102;-69
2023/12/01 15:18:47;;;;;;;;;;;;;;;;;;5019046;28;5167;-63
2023/12/01 15:21:12;;;;;;;;;;;;;;;;;;5028488;28;5037;-61
2023/12/01 15:23:37;;;;;;;;;;;;;;;;;;5027719;28;5088;-60
2023/12/01 15:26:03;;;;;;;;;;;;;;;;;;5025951;28;4987;-59
2023/12/01 15:28:28;;;;;;;;;;;;;;;;;;5025401;28;4960;-63
2023/12/01 15:30:53;;;;;;;;;;;;;;;;;;5027361;28;5116;-60
2023/12/01 15:33:18;;;;;;;;;;;;;;;;;;5023200;28;4872;-64
2023/12/01 15:35:44;;;;;;;;;;;;;;;;;;5022201;28;5177;-66
2023/12/01 15:38:09;;;;;;;;;;;;;;;;;;5026025;28;5109;-60
2023/12/01 15:40:34;;;;;;;;;;;;;;;;;;5029360;28;3745;-60
2023/12/01 15:43:00;;;;;;;;;;;;;;;;;;5024661;28;4465;-62
2023/12/01 15:45:25;;;;;;;;;;;;;;;;;;5021182;28;5134;-59
2023/12/01 15:47:50;;;;;;;;;;;;;;;;;;5027763;28;5514;-59
2023/12/01 15:50:15;;;;;;;;;;;;;;;;;;5034260;28;4458;-61
2023/12/01 15:52:41;;;;;;;;;;;;;;;;;;5024548;28;3337;-62
2023/12/01 15:55:06;;;;;;;;;;;;;;;;;;5023075;28;5178;-58
2023/12/01 15:57:31;;;;;;;;;;;;;;;;;;5029054;28;4940;-59
2023/12/01 15:59:57;;;;;;;;;;;;;;;;;;5023541;28;5100;-62
2023/12/01 16:02:23;;;;;;;;;;;;;;;;;;5016806;28;4457;-63
2023/12/01 16:04:49;;;;;;;;;;;;;;;;;;5030307;28;1163;-66
2023/12/01 16:07:14;;;;;;;;;;;;;;;;;;5026136;28;5094;-63
2023/12/01 16:09:40;;;;;;;;;;;;;;;;;;5028231;28;5129;-61
2023/12/01 16:12:05;;;;;;;;;;;;;;;;;;5025231;28;5058;-61
2023/12/01 16:14:30;;;;;;;;;;;;;;;;;;5009449;28;4899;-58
2023/12/01 16:16:56;;;;;;;;;;;;;;;;;;5022694;28;1240;-60
2023/12/01 16:19:21;;;;;;;;;;;;;;;;;;5030081;28;4457;-68
2023/12/01 16:21:47;;;;;;;;;;;;;;;;;;5041323;28;5268;-59
2023/12/01 16:24:12;;;;;;;;;;;;;;;;;;5044671;28;5157;-59
2023/12/01 16:26:38;;;;;;;;;;;;;;;;;;5047512;28;4910;-59
2023/12/01 16:29:04;;;;;;;;;;;;;;;;;;5042856;28;5269;-67
2023/12/01 16:31:29;;;;;;;;;;;;;;;;;;5050366;28;3409;-61
2023/12/01 16:33:54;;;;;;;;;;;;;;;;;;5049690;28;5145;-60
2023/12/01 16:36:20;;;;;;;;;;;;;;;;;;5047866;28;4986;-64
2023/12/01 16:38:45;;;;;;;;;;;;;;;;;;5039372;28;4476;-63
2023/12/01 16:41:10;;;;;;;;;;;;;;;;;;5043111;28;4706;-61
2023/12/01 16:43:36;;;;;;;;;;;;;;;;;;5043168;28;1442;-61
2023/12/01 16:46:01;;;;;;;;;;;;;;;;;;5044651;28;5234;-60
2023/12/01 16:48:26;;;;;;;;;;;;;;;;;;5047322;28;4571;-61
2023/12/01 16:50:53;;;;;;;;;;;;;;;;;;5040570;28;5240;-64
2023/12/01 16:53:18;;;;;;;;;;;;;;;;;;5046444;28;5274;-61
2023/12/01 16:55:43;;;;;;;;;;;;;;;;;;5042414;28;3787;-64